LECD weather

La Cerdanya Airport
Alp, Catalonia, Spain

Public forecast

Using degrees Celsius for public forecast. Weather courtesy of forecast.io.

Closest aviation weather report (METAR) to La Cerdanya Airport

Report is more than 6 hours old.

Closest report is Pirineus - la Seu d'Urgel Airport, 20.5 nm (38.0 km) W. Retrieved 2020/01/23 16:00 UTC (12 hours ago):

LESU 231600Z 35004KT 9999 FEW005 SCT025 05/05 Q1021

Closest aviation forecast (TAF) to La Cerdanya Airport

Closest forecast is Pirineus - la Seu d'Urgel Airport, 20.5 nm (38.0 km) W. Retrieved 2020-01-24 03:00 UTC (1 hour ago):

TAF LESU 240200Z 2403/2503 VRB02KT 9999 BKN020 TX10/2415Z TNM05/2406Z TEMPO 2403/2408 2000 BR BKN009 TEMPO 2418/2502 3000 BR BKN013